Time;durP1;ratioP1;P1;durP2;ratioP2;P2;SDS_P1;SDS_P2;PMS_P1;PMS_P2;Temp;Humidity;BMP_temperature;BMP_pressure;BME280_temperature;BME280_humidity;BME280_pressure;Samples;Min_cycle;Max_cycle;Signal;HPM_P1;HPM_P2
2021/01/24 00:01:06;;;;;;;;;;;;;;;-1.06;100.00;98029.34;5096744;28;20290;-86
2021/01/24 00:03:33;;;;;;;;;;;;;;;-0.94;100.00;98021.66;5113486;28;19985;-85
2021/01/24 00:06:00;;;;;;;;;;;;;;;-0.96;100.00;98028.69;5096932;28;20279;-85
2021/01/24 00:08:26;;;;;;;;;;;;;;;-0.89;100.00;98031.50;5113543;28;20023;-85
2021/01/24 00:10:53;;;;;;;;;;;;;;;-0.79;100.00;98039.84;5096720;28;20064;-86
2021/01/24 00:13:19;;;;;;;;;;;;;;;-0.79;100.00;98045.34;5113431;28;19924;-85
2021/01/24 00:15:46;;;;;;;;;;;;;;;-0.72;100.00;98044.63;5096432;28;19923;-86
2021/01/24 00:18:12;;;;;;;;;;;;;;;-0.69;100.00;98049.38;5096975;28;20393;-86
2021/01/24 00:20:39;;;;;;;;;;;;;;;-0.61;100.00;98046.38;5096604;28;20393;-85
2021/01/24 00:23:06;;;;;;;;;;;;;;;-0.75;100.00;98048.13;5096131;28;19927;-85
2021/01/24 00:25:32;;;;;;;;;;;;;;;-0.84;100.00;98047.63;5096651;28;20339;-86
2021/01/24 00:27:59;;;;;;;;;;;;;;;-0.94;100.00;98042.81;5096506;28;19931;-85
2021/01/24 00:30:25;;;;;;;;;;;;;;;-1.02;100.00;98041.94;5113397;28;20496;-85
2021/01/24 00:32:52;;;;;;;;;;;;;;;-1.08;100.00;98048.09;5096585;28;20425;-85
2021/01/24 00:35:18;;;;;;;;;;;;;;;-1.16;100.00;98052.69;5114574;28;19923;-84
2021/01/24 00:37:45;;;;;;;;;;;;;;;-1.19;100.00;98049.91;5113269;28;20358;-84
2021/01/24 00:40:12;;;;;;;;;;;;;;;-1.22;100.00;98058.88;5096596;28;19946;-84
2021/01/24 00:42:38;;;;;;;;;;;;;;;-1.26;100.00;98060.78;5096130;28;20396;-84
2021/01/24 00:45:07;;;;;;;;;;;;;;;-1.27;100.00;98079.16;5098618;28;19935;-84
2021/01/24 00:47:34;;;;;;;;;;;;;;;-1.28;100.00;98085.81;5100190;28;20018;-84
2021/01/24 00:50:02;;;;;;;;;;;;;;;-1.32;100.00;98092.41;5117094;28;19939;-84
2021/01/24 00:52:29;;;;;;;;;;;;;;;-1.38;100.00;98100.16;5083055;28;19923;-85
2021/01/24 00:54:56;;;;;;;;;;;;;;;-1.42;100.00;98106.75;5116902;28;19989;-85
2021/01/24 00:57:22;;;;;;;;;;;;;;;-1.46;100.00;98119.56;5116985;28;19923;-85
2021/01/24 00:59:49;;;;;;;;;;;;;;;-1.47;100.00;98113.28;5123282;28;19975;-85
2021/01/24 01:02:15;;;;;;;;;;;;;;;-1.50;100.00;98130.47;5117443;28;19924;-85
2021/01/24 01:04:43;;;;;;;;;;;;;;;-1.47;100.00;98145.41;5117256;28;20320;-84
2021/01/24 01:07:11;;;;;;;;;;;;;;;-1.47;100.00;98151.66;5119512;28;19930;-85
2021/01/24 01:09:38;;;;;;;;;;;;;;;-1.50;100.00;98151.63;5116865;28;19973;-85
2021/01/24 01:12:05;;;;;;;;;;;;;;;-1.41;100.00;98165.84;5117826;28;19924;-85
2021/01/24 01:14:31;;;;;;;;;;;;;;;-1.38;100.00;98179.63;5116723;28;19923;-85
2021/01/24 01:16:58;;;;;;;;;;;;;;;-1.44;100.00;98178.34;5082789;28;20379;-84
2021/01/24 01:19:24;;;;;;;;;;;;;;;-1.38;100.00;98174.13;5116295;28;19924;-85
2021/01/24 01:21:51;;;;;;;;;;;;;;;-1.27;100.00;98193.50;5082568;28;19931;-85
2021/01/24 01:24:18;;;;;;;;;;;;;;;-1.30;100.00;98194.22;5082939;28;19959;-85
2021/01/24 01:26:44;;;;;;;;;;;;;;;-1.42;100.00;98191.69;5099285;28;19923;-85
2021/01/24 01:29:11;;;;;;;;;;;;;;;-1.44;100.00;98196.72;5082760;28;19928;-85
2021/01/24 01:31:37;;;;;;;;;;;;;;;-1.52;100.00;98186.78;5099749;28;19927;-85
2021/01/24 01:34:04;;;;;;;;;;;;;;;-1.61;100.00;98187.03;5082385;28;19924;-85
2021/01/24 01:36:31;;;;;;;;;;;;;;;-1.63;100.00;98191.28;5099250;28;19924;-85
2021/01/24 01:38:58;;;;;;;;;;;;;;;-1.67;100.00;98179.47;5100672;28;19949;-85
2021/01/24 01:41:31;;;;;;;;;;;;;;;-1.73;100.00;98175.47;5099356;28;20423;-85
2021/01/24 01:43:58;;;;;;;;;;;;;;;-1.69;100.00;98176.31;5082259;28;19949;-85
2021/01/24 01:46:28;;;;;;;;;;;;;;;-1.69;100.00;98173.56;5099103;28;19924;-85
2021/01/24 01:48:55;;;;;;;;;;;;;;;-1.70;100.00;98166.53;5082264;28;19965;-84
2021/01/24 01:51:22;;;;;;;;;;;;;;;-1.76;100.00;98157.03;5115801;28;19924;-85
2021/01/24 01:53:52;;;;;;;;;;;;;;;-1.69;100.00;98155.19;5099407;28;19931;-85
2021/01/24 01:56:19;;;;;;;;;;;;;;;-1.64;100.00;98165.06;5115528;28;19924;-85
2021/01/24 01:58:45;;;;;;;;;;;;;;;-1.63;100.00;98172.09;5065556;28;20397;-85
2021/01/24 02:01:32;;;;;;;;;;;;;;;-1.66;100.00;98170.91;5098876;28;20306;-85
2021/01/24 02:04:17;;;;;;;;;;;;;;;-1.87;100.00;98163.13;5098792;28;19930;-85
2021/01/24 02:06:47;;;;;;;;;;;;;;;-1.95;100.00;98157.84;5115572;28;20274;-85
2021/01/24 02:09:30;;;;;;;;;;;;;;;-1.96;100.00;98162.56;5115439;28;19930;-85
2021/01/24 02:11:57;;;;;;;;;;;;;;;-2.10;100.00;98148.59;5116754;28;20200;-84
2021/01/24 02:14:28;;;;;;;;;;;;;;;-1.98;100.00;98158.56;5081750;28;20447;-85
2021/01/24 02:16:56;;;;;;;;;;;;;;;-2.02;100.00;98153.06;5098624;28;19924;-85
2021/01/24 02:19:24;;;;;;;;;;;;;;;-2.03;100.00;98159.66;5115424;28;19974;-85
2021/01/24 02:21:52;;;;;;;;;;;;;;;-1.95;100.00;98157.84;5098260;28;19924;-85
2021/01/24 02:24:21;;;;;;;;;;;;;;;-1.78;100.00;98157.38;5081795;28;19931;-85
2021/01/24 02:26:54;;;;;;;;;;;;;;;-1.77;100.00;98147.22;5082085;28;19972;-84
2021/01/24 02:29:44;;;;;;;;;;;;;;;-1.85;100.00;98133.41;5081560;28;19924;-85
2021/01/24 02:32:14;;;;;;;;;;;;;;;-1.90;100.00;98136.47;5107388;28;19938;-85
2021/01/24 02:34:42;;;;;;;;;;;;;;;-1.91;100.00;98137.59;5115209;28;19924;-85
2021/01/24 02:37:09;;;;;;;;;;;;;;;-1.85;100.00;98141.63;5098585;28;19932;-85
2021/01/24 02:39:36;;;;;;;;;;;;;;;-1.77;100.00;98136.28;5081253;28;19924;-84
2021/01/24 02:42:03;;;;;;;;;;;;;;;-1.70;100.00;98137.19;5098148;28;19924;-84
2021/01/24 02:44:29;;;;;;;;;;;;;;;-1.58;100.00;98150.69;5081574;28;19924;-84
2021/01/24 02:46:57;;;;;;;;;;;;;;;-1.53;100.00;98147.63;5115005;28;19986;-84
2021/01/24 02:49:24;;;;;;;;;;;;;;;-1.44;100.00;98150.16;5098133;28;19924;-84
2021/01/24 02:51:51;;;;;;;;;;;;;;;-1.39;100.00;98139.66;5114954;28;20407;-85
2021/01/24 02:54:18;;;;;;;;;;;;;;;-1.41;100.00;98146.66;5097850;28;20306;-84
2021/01/24 02:56:45;;;;;;;;;;;;;;;-1.30;100.00;98131.97;5097889;28;19924;-84
2021/01/24 02:59:11;;;;;;;;;;;;;;;-1.48;100.00;98119.94;5114525;28;20027;-85
2021/01/24 03:01:38;;;;;;;;;;;;;;;-1.76;100.00;98111.28;5080736;28;20408;-84
2021/01/24 03:04:04;;;;;;;;;;;;;;;-1.74;100.00;98113.66;5097984;28;19924;-84
2021/01/24 03:06:31;;;;;;;;;;;;;;;-1.50;100.00;98135.19;5097412;28;20366;-85
2021/01/24 03:08:58;;;;;;;;;;;;;;;-1.47;100.00;98142.66;5114105;28;19928;-85
2021/01/24 03:11:25;;;;;;;;;;;;;;;-1.39;100.00;98128.69;5097502;28;19924;-84
2021/01/24 03:14:01;;;;;;;;;;;;;;;-1.26;100.00;98129.28;5114211;28;19968;-84
2021/01/24 03:16:29;;;;;;;;;;;;;;;-1.19;100.00;98148.56;5097532;28;19935;-84
2021/01/24 03:18:57;;;;;;;;;;;;;;;-1.12;100.00;98148.69;5114333;28;19924;-84
2021/01/24 03:21:24;;;;;;;;;;;;;;;-1.33;100.00;98131.94;5080086;28;19924;-85
2021/01/24 03:23:52;;;;;;;;;;;;;;;-1.53;100.00;98114.00;5097287;28;19930;-84
2021/01/24 03:26:18;;;;;;;;;;;;;;;-1.54;100.00;98121.41;5117669;28;19967;-85
2021/01/24 03:28:45;;;;;;;;;;;;;;;-1.50;100.00;98124.22;5103056;28;19924;-85
2021/01/24 03:31:12;;;;;;;;;;;;;;;-1.57;100.00;98113.13;5102986;28;19923;-86
2021/01/24 03:33:39;;;;;;;;;;;;;;;-1.61;100.00;98115.03;5119006;28;19949;-85
2021/01/24 03:36:06;;;;;;;;;;;;;;;-1.56;100.00;98115.50;5119853;28;19932;-85
2021/01/24 03:38:33;;;;;;;;;;;;;;;-1.51;100.00;98126.16;5102657;28;19931;-85
2021/01/24 03:40:59;;;;;;;;;;;;;;;-1.47;100.00;98115.25;5102078;28;20076;-84
2021/01/24 03:43:26;;;;;;;;;;;;;;;-1.51;100.00;98106.19;5086072;28;20381;-85
2021/01/24 03:45:53;;;;;;;;;;;;;;;-1.44;100.00;98106.31;5099576;28;20014;-85
2021/01/24 03:48:21;;;;;;;;;;;;;;;-1.42;100.00;98109.47;5080623;28;20317;-85
2021/01/24 03:50:48;;;;;;;;;;;;;;;-1.38;100.00;98116.59;5113890;28;19927;-85
2021/01/24 03:53:15;;;;;;;;;;;;;;;-1.36;100.00;98113.50;5097214;28;19924;-85
2021/01/24 03:55:41;;;;;;;;;;;;;;;-1.12;100.00;98122.06;5113887;28;19996;-85
2021/01/24 03:58:08;;;;;;;;;;;;;;;-1.16;100.00;98123.16;5080242;28;19942;-84
2021/01/24 04:00:34;;;;;;;;;;;;;;;-1.16;100.00;98128.66;5114705;28;19959;-84
2021/01/24 04:03:01;;;;;;;;;;;;;;;-1.15;100.00;98127.50;5114300;28;19931;-84
2021/01/24 04:05:27;;;;;;;;;;;;;;;-1.18;100.00;98120.03;5097387;28;19928;-84
2021/01/24 04:07:54;;;;;;;;;;;;;;;-1.27;100.00;98123.00;5113860;28;20279;-85
2021/01/24 04:10:21;;;;;;;;;;;;;;;-1.24;100.00;98113.28;5115130;28;19924;-84
2021/01/24 04:12:48;;;;;;;;;;;;;;;-1.26;100.00;98107.38;5113741;28;19927;-85
2021/01/24 04:15:16;;;;;;;;;;;;;;;-1.44;100.00;98100.81;5113762;28;20294;-85
2021/01/24 04:17:43;;;;;;;;;;;;;;;-1.72;100.00;98081.19;5113699;28;19931;-84
2021/01/24 04:20:10;;;;;;;;;;;;;;;-1.83;100.00;98072.78;5099528;28;20302;-85
2021/01/24 04:22:36;;;;;;;;;;;;;;;-1.74;100.00;98078.03;5118003;28;19969;-84
2021/01/24 04:25:03;;;;;;;;;;;;;;;-1.68;100.00;98080.09;5101033;28;19924;-84
2021/01/24 04:27:30;;;;;;;;;;;;;;;-1.68;100.00;98076.56;5117770;28;20349;-84
2021/01/24 04:29:57;;;;;;;;;;;;;;;-1.67;100.00;98083.63;5100535;28;19973;-85
2021/01/24 04:32:23;;;;;;;;;;;;;;;-1.69;100.00;98073.03;5101071;28;20406;-85
2021/01/24 04:34:50;;;;;;;;;;;;;;;-1.68;100.00;98071.09;5117243;28;20010;-85
2021/01/24 04:37:16;;;;;;;;;;;;;;;-1.72;100.00;98072.97;5118332;28;19928;-85
2021/01/24 04:39:43;;;;;;;;;;;;;;;-1.71;100.00;98077.31;5117259;28;19977;-85
2021/01/24 04:42:09;;;;;;;;;;;;;;;-1.67;100.00;98092.66;5083726;28;20437;-84
2021/01/24 04:44:36;;;;;;;;;;;;;;;-1.62;100.00;98094.28;5100808;28;20008;-84
2021/01/24 04:47:04;;;;;;;;;;;;;;;-1.58;100.00;98103.34;5082917;28;19924;-84
2021/01/24 04:49:30;;;;;;;;;;;;;;;-1.67;100.00;98098.13;5100858;28;19976;-84
2021/01/24 04:51:58;;;;;;;;;;;;;;;-1.62;100.00;98100.53;5117614;28;19924;-84
2021/01/24 04:54:25;;;;;;;;;;;;;;;-1.54;100.00;98104.97;5100885;28;19924;-84
2021/01/24 04:56:52;;;;;;;;;;;;;;;-1.53;100.00;98103.03;5099899;28;19924;-84
2021/01/24 04:59:18;;;;;;;;;;;;;;;-1.54;100.00;98095.94;5117003;28;19924;-85
2021/01/24 05:01:45;;;;;;;;;;;;;;;-1.69;100.00;98088.66;5100324;28;19953;-85
2021/01/24 05:04:12;;;;;;;;;;;;;;;-1.78;100.00;98088.94;5118042;28;19930;-85
2021/01/24 05:06:39;;;;;;;;;;;;;;;-1.71;100.00;98093.75;5083384;28;20315;-85
2021/01/24 05:09:06;;;;;;;;;;;;;;;-1.68;100.00;98095.75;5099984;28;20297;-85
2021/01/24 05:11:33;;;;;;;;;;;;;;;-1.66;100.00;98093.41;5117233;28;19931;-84
2021/01/24 05:14:16;;;;;;;;;;;;;;;-1.67;100.00;98091.84;5117337;28;20390;-85
2021/01/24 05:16:43;;;;;;;;;;;;;;;-1.63;100.00;98089.94;5117918;28;20026;-85
2021/01/24 05:19:10;;;;;;;;;;;;;;;-1.62;100.00;98088.81;5116665;28;19924;-85
2021/01/24 05:21:37;;;;;;;;;;;;;;;-1.67;100.00;98078.94;5116899;28;19931;-85
2021/01/24 05:24:11;;;;;;;;;;;;;;;-1.63;100.00;98078.97;5115517;28;19924;-85
2021/01/24 05:26:43;;;;;;;;;;;;;;;-1.64;100.00;98080.94;5098933;28;19924;-85
2021/01/24 05:29:23;;;;;;;;;;;;;;;-1.63;100.00;98085.25;5099067;28;19951;-85
2021/01/24 05:31:53;;;;;;;;;;;;;;;-1.64;100.00;98074.69;5115093;28;19931;-84
2021/01/24 05:34:23;;;;;;;;;;;;;;;-1.67;100.00;98070.72;5098406;28;19970;-84
2021/01/24 05:36:50;;;;;;;;;;;;;;;-1.93;100.00;98068.75;5098394;28;19963;-85
2021/01/24 05:39:17;;;;;;;;;;;;;;;-2.08;100.00;98053.25;5081550;28;20065;-84
2021/01/24 05:41:46;;;;;;;;;;;;;;;-2.09;100.00;98048.91;5081424;28;20018;-84
2021/01/24 05:44:14;;;;;;;;;;;;;;;-1.99;100.00;98053.78;5097804;28;19931;-84
2021/01/24 05:46:41;;;;;;;;;;;;;;;-1.88;100.00;98060.22;5115980;28;19924;-84
2021/01/24 05:49:08;;;;;;;;;;;;;;;-1.77;100.00;98065.84;5115278;28;19927;-85
2021/01/24 05:51:34;;;;;;;;;;;;;;;-1.76;100.00;98069.41;5115447;28;20338;-85
2021/01/24 05:54:01;;;;;;;;;;;;;;;-1.73;100.00;98065.91;5081354;28;19947;-85
2021/01/24 05:56:29;;;;;;;;;;;;;;;-1.73;100.00;98069.47;5081225;28;19928;-85
2021/01/24 05:58:59;;;;;;;;;;;;;;;-1.76;100.00;98058.44;5115017;28;19931;-84
2021/01/24 06:01:28;;;;;;;;;;;;;;;-1.75;100.00;98062.75;5098104;28;19923;-84
2021/01/24 06:03:55;;;;;;;;;;;;;;;-1.72;100.00;98067.50;5098196;28;19924;-85
2021/01/24 06:06:22;;;;;;;;;;;;;;;-1.69;100.00;98066.75;5081300;28;19972;-84
2021/01/24 06:08:48;;;;;;;;;;;;;;;-1.64;100.00;98077.41;5114776;28;19961;-85
2021/01/24 06:11:15;;;;;;;;;;;;;;;-1.53;100.00;98075.63;5114905;28;20065;-85
2021/01/24 06:13:45;;;;;;;;;;;;;;;-1.41;100.00;98069.94;5097972;28;20341;-84
2021/01/24 06:16:19;;;;;;;;;;;;;;;-1.51;100.00;98051.38;5114141;28;20057;-84
2021/01/24 06:18:53;;;;;;;;;;;;;;;-1.48;100.00;98045.16;5115369;28;19924;-84
2021/01/24 06:21:24;;;;;;;;;;;;;;;-1.70;100.00;98035.88;5097481;28;19959;-85
2021/01/24 06:24:38;;;;;;;;;;;;;;;-1.78;100.00;97965.69;5112605;27;20016;-84
2021/01/24 06:27:06;;;;;;;;;;;;;;;-1.73;100.00;97979.09;5111500;28;19971;-84
2021/01/24 06:29:32;;;;;;;;;;;;;;;-1.72;100.00;97985.34;5094965;28;20006;-84
2021/01/24 06:32:03;;;;;;;;;;;;;;;-1.67;100.00;97987.78;5094330;28;19924;-83
2021/01/24 06:34:48;;;;;;;;;;;;;;;-1.65;100.00;97986.22;5092340;28;19923;-84
2021/01/24 06:37:20;;;;;;;;;;;;;;;-1.62;100.00;97988.22;5094563;28;19924;-84
2021/01/24 06:39:50;;;;;;;;;;;;;;;-1.55;100.00;98006.72;5094442;28;20392;-84
2021/01/24 06:42:36;;;;;;;;;;;;;;;-1.52;100.00;98001.31;5077751;28;19924;-84
2021/01/24 06:45:04;;;;;;;;;;;;;;;-1.50;100.00;98009.16;5060842;28;19924;-83
2021/01/24 06:47:38;;;;;;;;;;;;;;;-1.51;100.00;98007.56;5094369;28;19931;-83
2021/01/24 06:50:25;;;;;;;;;;;;;;;-1.52;100.00;98006.00;5110887;28;19935;-83
2021/01/24 06:53:01;;;;;;;;;;;;;;;-1.53;100.00;97998.94;5076586;28;20023;-83
2021/01/24 06:55:28;;;;;;;;;;;;;;;-1.61;100.00;98003.53;5093831;28;19924;-83
2021/01/24 06:57:54;;;;;;;;;;;;;;;-1.67;100.00;97990.50;5110814;28;20086;-83
2021/01/24 07:00:21;;;;;;;;;;;;;;;-1.70;100.00;97993.97;5093666;28;19963;-84
2021/01/24 07:03:13;;;;;;;;;;;;;;;-1.71;100.00;97986.94;5077729;28;19988;-83
2021/01/24 07:05:40;;;;;;;;;;;;;;;-1.75;100.00;97986.06;5076891;28;19978;-84
2021/01/24 07:08:27;;;;;;;;;;;;;;;-1.79;100.00;97980.56;5110269;28;19924;-84
2021/01/24 07:10:53;;;;;;;;;;;;;;;-1.74;100.00;97982.19;5093841;28;19924;-84
2021/01/24 07:13:23;;;;;;;;;;;;;;;-1.76;100.00;97979.81;5093565;28;19928;-83
2021/01/24 07:15:56;;;;;;;;;;;;;;;-1.74;100.00;97982.97;5076426;28;19946;-83
2021/01/24 07:18:23;;;;;;;;;;;;;;;-1.78;100.00;97975.84;5093722;28;19928;-84
2021/01/24 07:20:51;;;;;;;;;;;;;;;-1.83;100.00;97972.28;5076752;28;19924;-84
2021/01/24 07:23:18;;;;;;;;;;;;;;;-1.77;100.00;97985.66;5076082;28;20393;-83
2021/01/24 07:25:45;;;;;;;;;;;;;;;-1.87;100.00;97987.88;5076735;28;19946;-84
2021/01/24 07:28:12;;;;;;;;;;;;;;;-1.96;100.00;97976.41;5092945;28;20023;-83
2021/01/24 07:30:42;;;;;;;;;;;;;;;-1.99;100.00;97982.63;5093380;28;20571;-83
2021/01/24 07:33:09;;;;;;;;;;;;;;;-1.98;100.00;97973.22;5093380;28;19927;-83
2021/01/24 07:35:36;;;;;;;;;;;;;;;-1.99;100.00;97979.88;5098075;28;19935;-83
2021/01/24 07:38:03;;;;;;;;;;;;;;;-2.06;100.00;97962.56;5062337;28;19924;-84
2021/01/24 07:40:30;;;;;;;;;;;;;;;-2.19;100.00;97966.63;5063190;28;19973;-84
2021/01/24 07:42:57;;;;;;;;;;;;;;;-2.00;100.00;97977.50;5096060;28;20294;-83
2021/01/24 07:45:24;;;;;;;;;;;;;;;-2.03;100.00;97970.03;5079651;28;20010;-83
2021/01/24 07:47:51;;;;;;;;;;;;;;;-2.03;100.00;97970.78;5062881;28;19931;-83
2021/01/24 07:50:18;;;;;;;;;;;;;;;-1.97;100.00;97974.81;5079579;28;20299;-84
2021/01/24 07:52:45;;;;;;;;;;;;;;;-1.94;100.00;97971.31;5079633;28;19931;-81
2021/01/24 07:55:12;;;;;;;;;;;;;;;-1.95;100.00;97977.16;5097053;28;19924;-82
2021/01/24 07:57:39;;;;;;;;;;;;;;;-1.92;100.00;97979.97;5079866;28;19945;-85
2021/01/24 08:00:06;;;;;;;;;;;;;;;-1.97;100.00;97985.75;5079063;28;19924;-82
2021/01/24 08:02:39;;;;;;;;;;;;;;;-1.94;100.00;97978.78;5096610;28;19924;-80
2021/01/24 08:05:07;;;;;;;;;;;;;;;-1.90;100.00;97985.88;5095816;28;19928;-80
2021/01/24 08:07:33;;;;;;;;;;;;;;;-1.90;100.00;97990.56;5096902;28;20253;-79
2021/01/24 08:10:00;;;;;;;;;;;;;;;-1.99;100.00;97982.63;5096620;28;19969;-79
2021/01/24 08:12:27;;;;;;;;;;;;;;;-2.09;100.00;97985.94;5078157;28;20287;-80
2021/01/24 08:14:54;;;;;;;;;;;;;;;-2.02;100.00;97985.28;5096654;28;20438;-80
2021/01/24 08:17:21;;;;;;;;;;;;;;;-2.05;100.00;97992.28;5096343;28;20232;-80
2021/01/24 08:19:49;;;;;;;;;;;;;;;-2.02;100.00;97988.81;5078572;28;20003;-80
2021/01/24 08:22:15;;;;;;;;;;;;;;;-2.01;100.00;97989.59;5078389;28;20274;-80
2021/01/24 08:24:42;;;;;;;;;;;;;;;-2.05;100.00;97986.03;5096237;28;19924;-80
2021/01/24 08:27:09;;;;;;;;;;;;;;;-2.07;100.00;97991.06;5078315;28;19928;-80
2021/01/24 08:29:37;;;;;;;;;;;;;;;-2.04;100.00;97982.91;5078116;28;20328;-80
2021/01/24 08:32:04;;;;;;;;;;;;;;;-2.01;100.00;97989.59;5096114;28;19974;-80
2021/01/24 08:34:32;;;;;;;;;;;;;;;-2.12;100.00;97978.47;5096231;28;20017;-80
2021/01/24 08:36:59;;;;;;;;;;;;;;;-2.11;100.00;97985.53;5111924;28;19924;-80
2021/01/24 08:39:26;;;;;;;;;;;;;;;-2.06;100.00;97982.47;5096047;28;19935;-80
2021/01/24 08:41:56;;;;;;;;;;;;;;;-1.98;100.00;97989.66;5094759;28;20291;-80
2021/01/24 08:44:23;;;;;;;;;;;;;;;-1.87;100.00;97985.16;5061660;28;19931;-80
2021/01/24 08:46:51;;;;;;;;;;;;;;;-1.86;100.00;97986.72;5093601;28;19931;-80
2021/01/24 08:49:22;;;;;;;;;;;;;;;-1.84;100.00;97983.59;5077818;28;19939;-80
2021/01/24 08:51:52;;;;;;;;;;;;;;;-1.77;100.00;97983.69;5095959;28;20069;-80
2021/01/24 08:54:18;;;;;;;;;;;;;;;-1.77;100.00;97982.94;5077647;28;19947;-80
2021/01/24 08:56:45;;;;;;;;;;;;;;;-1.92;100.00;97971.75;5077129;28;19975;-80
2021/01/24 08:59:15;;;;;;;;;;;;;;;-1.88;100.00;97963.63;5077827;28;19924;-80
2021/01/24 09:01:45;;;;;;;;;;;;;;;-1.86;100.00;97967.56;5095680;28;19932;-81
2021/01/24 09:04:22;;;;;;;;;;;;;;;-1.71;100.00;97967.78;5095119;28;19947;-81
2021/01/24 09:07:12;;;;;;;;;;;;;;;-1.64;100.00;97970.59;5077321;28;19932;-80
2021/01/24 09:09:41;;;;;;;;;;;;;;;-1.64;100.00;97982.34;5069516;28;19924;-80
2021/01/24 09:12:09;;;;;;;;;;;;;;;-1.54;100.00;97980.91;5077433;28;19932;-81
2021/01/24 09:14:35;;;;;;;;;;;;;;;-1.43;100.00;97981.84;5077601;28;19928;-80
2021/01/24 09:17:06;;;;;;;;;;;;;;;-1.30;100.00;97980.47;5077588;28;19924;-75
2021/01/24 09:19:34;;;;;;;;;;;;;;;-1.29;100.00;97982.03;5095311;28;19924;-81
2021/01/24 09:22:01;;;;;;;;;;;;;;;-1.21;100.00;97992.72;5077440;28;19924;-82
2021/01/24 09:24:27;;;;;;;;;;;;;;;-1.23;100.00;97980.56;5060069;28;20355;-80
2021/01/24 09:26:54;;;;;;;;;;;;;;;-1.20;100.00;97990.78;5094828;28;19924;-84
2021/01/24 09:29:21;;;;;;;;;;;;;;;-1.18;100.00;97988.47;5095112;28;19931;-80
2021/01/24 09:31:48;;;;;;;;;;;;;;;-1.12;100.00;97976.00;5110452;28;19958;-80
2021/01/24 09:34:15;;;;;;;;;;;;;;;-1.14;100.00;97978.31;5076849;28;20341;-78
2021/01/24 09:36:41;;;;;;;;;;;;;;;-1.02;100.00;97983.56;5059702;28;19924;-78
2021/01/24 09:39:08;;;;;;;;;;;;;;;-1.05;100.00;97976.88;5060326;28;19924;-79
2021/01/24 09:41:34;;;;;;;;;;;;;;;-1.03;100.00;97979.25;5076646;28;20314;-79
2021/01/24 09:44:02;;;;;;;;;;;;;;;-1.05;100.00;97965.91;5076275;28;19931;-79
2021/01/24 09:46:28;;;;;;;;;;;;;;;-0.88;100.00;97978.25;5076630;28;19927;-79
2021/01/24 09:48:55;;;;;;;;;;;;;;;-0.84;100.00;97981.81;5060111;28;19932;-79
2021/01/24 09:51:22;;;;;;;;;;;;;;;-0.69;100.00;97989.03;5094994;28;19928;-79
2021/01/24 09:53:52;;;;;;;;;;;;;;;-0.57;100.00;97997.78;5094452;28;19924;-82
2021/01/24 09:56:20;;;;;;;;;;;;;;;-0.45;100.00;97991.25;5078834;28;19928;-87
2021/01/24 09:58:46;;;;;;;;;;;;;;;-0.53;100.00;97986.88;5043770;28;20069;-83
2021/01/24 10:01:13;;;;;;;;;;;;;;;-0.43;100.00;97991.66;5091531;28;19931;-78
2021/01/24 10:03:40;;;;;;;;;;;;;;;-0.45;100.00;97989.28;5092503;28;20274;-78
2021/01/24 10:06:07;;;;;;;;;;;;;;;-0.44;100.00;97990.09;5075680;28;19924;-77
2021/01/24 10:08:33;;;;;;;;;;;;;;;-0.36;100.00;97998.00;5094193;28;19931;-78
2021/01/24 10:11:00;;;;;;;;;;;;;;;-0.34;100.00;97994.88;5094452;28;19924;-79
2021/01/24 10:13:27;;;;;;;;;;;;;;;-0.32;100.00;97998.06;5094350;28;19924;-79
2021/01/24 10:15:53;;;;;;;;;;;;;;;-0.32;100.00;97992.56;5076316;28;19924;-78
2021/01/24 10:18:21;;;;;;;;;;;;;;;-0.31;100.00;97988.66;5076193;28;19924;-78
2021/01/24 10:20:47;;;;;;;;;;;;;;;-0.32;100.00;97990.59;5074873;28;19924;-77
2021/01/24 10:23:16;;;;;;;;;;;;;;;-0.28;100.00;97982.41;5056914;28;19924;-78
2021/01/24 10:25:43;;;;;;;;;;;;;;;-0.25;100.00;97978.91;5093921;28;20009;-80
2021/01/24 10:28:10;;;;;;;;;;;;;;;-0.21;100.00;97972.25;5076220;28;19924;-79
2021/01/24 10:30:36;;;;;;;;;;;;;;;-0.19;100.00;97980.13;5094374;28;19924;-81
2021/01/24 10:33:05;;;;;;;;;;;;;;;-0.20;100.00;97973.84;5094257;28;19935;-79
2021/01/24 10:35:32;;;;;;;;;;;;;;;-0.23;100.00;97965.59;5059433;28;19924;-79
2021/01/24 10:37:58;;;;;;;;;;;;;;;-0.21;100.00;97966.78;5075888;28;20329;-79
2021/01/24 10:40:25;;;;;;;;;;;;;;;-0.16;100.00;97957.41;5076051;28;19924;-79
2021/01/24 10:42:51;;;;;;;;;;;;;;;-0.09;100.00;97944.53;5076136;28;19924;-79
2021/01/24 10:45:18;;;;;;;;;;;;;;;-0.11;100.00;97946.09;5094109;28;19924;-80
2021/01/24 10:47:45;;;;;;;;;;;;;;;-0.18;100.00;97929.53;5059302;28;20025;-79
2021/01/24 10:50:13;;;;;;;;;;;;;;;-0.14;100.00;97927.63;5075818;28;20023;-78
2021/01/24 10:52:40;;;;;;;;;;;;;;;-0.13;100.00;97929.19;5093579;28;19977;-78
2021/01/24 10:55:06;;;;;;;;;;;;;;;-0.15;100.00;97931.50;5075996;28;19947;-78
2021/01/24 10:57:33;;;;;;;;;;;;;;;-0.09;100.00;97921.75;5076179;28;19925;-78
2021/01/24 11:01:09;;;;;;;;;;;;;;;-0.04;100.00;97915.91;5094848;28;19931;-79
2021/01/24 11:03:35;;;;;;;;;;;;;;;-0.03;100.00;97904.56;5093819;28;19993;-80
2021/01/24 11:09:48;;;;;;;;;;;;;;;0.00;100.00;97883.81;5078328;28;19923;-79
2021/01/24 11:12:15;;;;;;;;;;;;;;;0.03;100.00;97865.75;5098943;28;20294;-80
2021/01/24 11:15:03;;;;;;;;;;;;;;;0.04;100.00;97857.13;5112636;28;19932;-80
2021/01/24 11:17:33;;;;;;;;;;;;;;;0.03;100.00;97843.78;5111126;28;19924;-83
2021/01/24 11:19:59;;;;;;;;;;;;;;;0.00;100.00;97839.88;5089078;28;20307;-84
2021/01/24 11:22:27;;;;;;;;;;;;;;;0.00;100.00;97828.88;5066808;28;19924;-82
2021/01/24 11:24:54;;;;;;;;;;;;;;;-0.04;100.00;97823.34;5091051;28;20286;-82
2021/01/24 11:27:21;;;;;;;;;;;;;;;-0.03;100.00;97824.13;5082314;28;19927;-83
2021/01/24 11:29:48;;;;;;;;;;;;;;;-0.04;100.00;97809.63;5097167;28;19932;-84
2021/01/24 11:32:15;;;;;;;;;;;;;;;-0.01;100.00;97799.81;5045747;28;20343;-84
2021/01/24 11:34:41;;;;;;;;;;;;;;;0.05;100.00;97792.78;5078775;28;20443;-84
2021/01/24 11:37:08;;;;;;;;;;;;;;;0.08;100.00;97783.03;5062402;28;19924;-83
2021/01/24 11:39:35;;;;;;;;;;;;;;;0.12;100.00;97776.38;5045647;28;19938;-81
2021/01/24 11:42:02;;;;;;;;;;;;;;;0.22;100.00;97769.31;5079908;28;19932;-83
2021/01/24 11:44:29;;;;;;;;;;;;;;;0.22;100.00;97764.63;5092987;28;20440;-83
2021/01/24 11:46:59;;;;;;;;;;;;;;;0.24;100.00;97761.50;5066538;28;19928;-83
2021/01/24 11:49:25;;;;;;;;;;;;;;;0.24;100.00;97756.00;5099068;28;19928;-83
2021/01/24 11:51:52;;;;;;;;;;;;;;;0.40;100.00;97748.19;5117009;28;19930;-83
2021/01/24 11:54:19;;;;;;;;;;;;;;;0.34;100.00;97747.78;5065446;28;19973;-84
2021/01/24 11:56:46;;;;;;;;;;;;;;;0.28;100.00;97745.81;5089909;28;20413;-84
2021/01/24 11:59:13;;;;;;;;;;;;;;;0.24;100.00;97745.81;5078196;28;19966;-85
2021/01/24 12:01:39;;;;;;;;;;;;;;;0.22;100.00;97742.66;5065756;28;19930;-84
2021/01/24 12:04:06;;;;;;;;;;;;;;;0.19;100.00;97732.44;5109114;28;19928;-80
2021/01/24 12:06:32;;;;;;;;;;;;;;;0.18;100.00;97724.59;5098573;28;20402;-82
2021/01/24 12:08:59;;;;;;;;;;;;;;;0.21;100.00;97718.31;5098569;28;20375;-83
2021/01/24 12:11:25;;;;;;;;;;;;;;;0.22;100.00;97706.16;5098504;28;20314;-85
2021/01/24 12:13:52;;;;;;;;;;;;;;;0.29;100.00;97703.44;5098112;28;19932;-83
2021/01/24 12:16:19;;;;;;;;;;;;;;;0.30;100.00;97694.81;5078070;28;19930;-85
2021/01/24 12:18:45;;;;;;;;;;;;;;;0.33;100.00;97691.28;5094807;28;19967;-84
2021/01/24 12:21:12;;;;;;;;;;;;;;;0.31;100.00;97696.38;5095163;28;19938;-84
2021/01/24 12:23:39;;;;;;;;;;;;;;;0.34;100.00;97689.28;5096174;28;19955;-85
2021/01/24 12:26:05;;;;;;;;;;;;;;;0.36;100.00;97682.25;5061402;28;19924;-80
2021/01/24 12:28:32;;;;;;;;;;;;;;;0.35;100.00;97680.66;5096006;28;20383;-82
2021/01/24 12:30:58;;;;;;;;;;;;;;;0.42;100.00;97677.16;5070110;28;20339;-83
2021/01/24 12:33:25;;;;;;;;;;;;;;;0.43;100.00;97664.97;5077929;28;19931;-82
2021/01/24 12:35:51;;;;;;;;;;;;;;;0.45;100.00;97660.69;5061330;28;19924;-83
2021/01/24 12:38:18;;;;;;;;;;;;;;;0.46;100.00;97643.00;5095895;28;19967;-78
2021/01/24 12:40:44;;;;;;;;;;;;;;;0.45;100.00;97624.97;5096242;28;20366;-79
2021/01/24 12:43:11;;;;;;;;;;;;;;;0.42;100.00;97614.75;5096172;28;20008;-84
2021/01/24 12:45:44;;;;;;;;;;;;;;;0.43;100.00;97593.53;5077991;28;20398;-85
2021/01/24 12:48:13;;;;;;;;;;;;;;;0.39;100.00;97557.84;5044411;28;19924;-82